sensor_id;sensor_type;location;lat;lon;timestamp;temperature;humidity
23562;DHT22;11959;49.418;8.728;2023-02-26T00:01:02;1.40;99.90
23562;DHT22;11959;49.418;8.728;2023-02-26T00:03:28;1.40;99.90
23562;DHT22;11959;49.418;8.728;2023-02-26T00:05:59;1.50;99.90
23562;DHT22;11959;49.418;8.728;2023-02-26T00:08:25;1.50;99.90
23562;DHT22;11959;49.418;8.728;2023-02-26T00:10:51;1.50;99.90
23562;DHT22;11959;49.418;8.728;2023-02-26T00:13:19;1.60;99.90
23562;DHT22;11959;49.418;8.728;2023-02-26T00:15:46;1.60;99.90
23562;DHT22;11959;49.418;8.728;2023-02-26T00:18:14;1.60;99.90
23562;DHT22;11959;49.418;8.728;2023-02-26T00:20:41;1.60;99.90
23562;DHT22;11959;49.418;8.728;2023-02-26T00:23:11;1.50;99.90
23562;DHT22;11959;49.418;8.728;2023-02-26T00:25:39;1.60;99.90
23562;DHT22;11959;49.418;8.728;2023-02-26T00:28:05;1.60;99.90
23562;DHT22;11959;49.418;8.728;2023-02-26T00:30:32;1.60;99.90
23562;DHT22;11959;49.418;8.728;2023-02-26T00:32:58;1.50;99.90
23562;DHT22;11959;49.418;8.728;2023-02-26T00:35:24;1.50;99.90
23562;DHT22;11959;49.418;8.728;2023-02-26T00:38:06;1.50;99.90
23562;DHT22;11959;49.418;8.728;2023-02-26T00:43:17;1.50;99.90
23562;DHT22;11959;49.418;8.728;2023-02-26T00:45:50;1.50;99.90
23562;DHT22;11959;49.418;8.728;2023-02-26T00:49:01;1.50;99.90
23562;DHT22;11959;49.418;8.728;2023-02-26T00:56:23;1.40;99.90
23562;DHT22;11959;49.418;8.728;2023-02-26T00:58:48;1.40;99.90
23562;DHT22;11959;49.418;8.728;2023-02-26T01:01:14;1.30;99.90
23562;DHT22;11959;49.418;8.728;2023-02-26T01:03:40;1.30;99.90
23562;DHT22;11959;49.418;8.728;2023-02-26T01:06:10;1.20;99.90
23562;DHT22;11959;49.418;8.728;2023-02-26T01:09:15;1.30;99.90
23562;DHT22;11959;49.418;8.728;2023-02-26T01:11:38;1.30;99.90
23562;DHT22;11959;49.418;8.728;2023-02-26T01:14:04;1.30;99.90
23562;DHT22;11959;49.418;8.728;2023-02-26T01:16:35;1.30;99.90
23562;DHT22;11959;49.418;8.728;2023-02-26T01:19:12;1.30;99.90
23562;DHT22;11959;49.418;8.728;2023-02-26T01:21:44;1.30;99.90
23562;DHT22;11959;49.418;8.728;2023-02-26T01:24:14;1.30;99.90
23562;DHT22;11959;49.418;8.728;2023-02-26T01:26:41;1.20;99.90
23562;DHT22;11959;49.418;8.728;2023-02-26T01:29:07;1.30;99.90
23562;DHT22;11959;49.418;8.728;2023-02-26T01:31:45;1.20;99.90
23562;DHT22;11959;49.418;8.728;2023-02-26T01:34:24;1.20;99.90
23562;DHT22;11959;49.418;8.728;2023-02-26T01:40:19;1.20;99.90
23562;DHT22;11959;49.418;8.728;2023-02-26T01:42:53;1.20;99.90
23562;DHT22;11959;49.418;8.728;2023-02-26T01:45:28;1.20;99.90
23562;DHT22;11959;49.418;8.728;2023-02-26T01:48:11;1.20;99.90
23562;DHT22;11959;49.418;8.728;2023-02-26T01:50:41;1.20;99.90
23562;DHT22;11959;49.418;8.728;2023-02-26T01:53:15;1.20;99.90
23562;DHT22;11959;49.418;8.728;2023-02-26T01:55:43;1.10;99.90
23562;DHT22;11959;49.418;8.728;2023-02-26T01:58:10;1.10;99.90
23562;DHT22;11959;49.418;8.728;2023-02-26T02:00:36;1.10;99.90
23562;DHT22;11959;49.418;8.728;2023-02-26T02:03:03;1.10;99.90
23562;DHT22;11959;49.418;8.728;2023-02-26T02:05:38;1.10;99.90
23562;DHT22;11959;49.418;8.728;2023-02-26T02:08:06;1.10;99.90
23562;DHT22;11959;49.418;8.728;2023-02-26T02:10:32;1.10;99.90
23562;DHT22;11959;49.418;8.728;2023-02-26T02:13:09;1.10;99.90
23562;DHT22;11959;49.418;8.728;2023-02-26T02:23:55;0.90;99.90
23562;DHT22;11959;49.418;8.728;2023-02-26T02:32:33;0.90;99.90
23562;DHT22;11959;49.418;8.728;2023-02-26T02:35:11;0.90;99.90
23562;DHT22;11959;49.418;8.728;2023-02-26T02:40:21;0.90;99.90
23562;DHT22;11959;49.418;8.728;2023-02-26T02:42:54;0.80;99.90
23562;DHT22;11959;49.418;8.728;2023-02-26T02:45:40;0.80;99.90
23562;DHT22;11959;49.418;8.728;2023-02-26T02:48:25;0.80;99.90
23562;DHT22;11959;49.418;8.728;2023-02-26T02:50:58;0.80;99.90
23562;DHT22;11959;49.418;8.728;2023-02-26T02:53:33;0.70;99.90
23562;DHT22;11959;49.418;8.728;2023-02-26T02:56:08;0.70;99.90
23562;DHT22;11959;49.418;8.728;2023-02-26T02:58:46;0.70;99.90
23562;DHT22;11959;49.418;8.728;2023-02-26T03:01:14;0.70;99.90
23562;DHT22;11959;49.418;8.728;2023-02-26T03:03:51;0.70;99.90
23562;DHT22;11959;49.418;8.728;2023-02-26T03:06:19;0.60;99.90
23562;DHT22;11959;49.418;8.728;2023-02-26T03:08:46;0.60;99.90
23562;DHT22;11959;49.418;8.728;2023-02-26T03:11:12;0.60;99.90
23562;DHT22;11959;49.418;8.728;2023-02-26T03:13:39;0.60;99.90
23562;DHT22;11959;49.418;8.728;2023-02-26T03:16:22;0.50;99.90
23562;DHT22;11959;49.418;8.728;2023-02-26T03:18:59;0.60;99.90
23562;DHT22;11959;49.418;8.728;2023-02-26T03:21:38;0.70;99.90
23562;DHT22;11959;49.418;8.728;2023-02-26T03:24:13;0.70;99.90
23562;DHT22;11959;49.418;8.728;2023-02-26T03:26:44;0.70;99.90
23562;DHT22;11959;49.418;8.728;2023-02-26T03:29:20;0.70;99.90
23562;DHT22;11959;49.418;8.728;2023-02-26T03:31:59;0.60;99.90
23562;DHT22;11959;49.418;8.728;2023-02-26T03:34:29;0.60;99.90
23562;DHT22;11959;49.418;8.728;2023-02-26T03:37:17;0.60;99.90
23562;DHT22;11959;49.418;8.728;2023-02-26T03:39:54;0.60;99.90
23562;DHT22;11959;49.418;8.728;2023-02-26T03:42:35;0.50;99.90
23562;DHT22;11959;49.418;8.728;2023-02-26T03:45:12;0.50;99.90
23562;DHT22;11959;49.418;8.728;2023-02-26T03:47:40;0.60;99.90
23562;DHT22;11959;49.418;8.728;2023-02-26T03:50:12;0.60;99.90
23562;DHT22;11959;49.418;8.728;2023-02-26T03:52:41;0.70;99.90
23562;DHT22;11959;49.418;8.728;2023-02-26T03:55:12;0.80;99.90
23562;DHT22;11959;49.418;8.728;2023-02-26T03:57:39;0.80;99.90
23562;DHT22;11959;49.418;8.728;2023-02-26T04:00:07;0.80;99.90
23562;DHT22;11959;49.418;8.728;2023-02-26T04:03:10;0.70;99.90
23562;DHT22;11959;49.418;8.728;2023-02-26T04:05:44;0.80;99.90
23562;DHT22;11959;49.418;8.728;2023-02-26T04:08:12;0.80;99.90
23562;DHT22;11959;49.418;8.728;2023-02-26T04:10:45;0.80;99.90
23562;DHT22;11959;49.418;8.728;2023-02-26T04:13:11;0.90;99.90
23562;DHT22;11959;49.418;8.728;2023-02-26T04:15:37;0.80;99.90
23562;DHT22;11959;49.418;8.728;2023-02-26T04:18:03;0.80;99.90
23562;DHT22;11959;49.418;8.728;2023-02-26T04:20:29;0.80;99.90
23562;DHT22;11959;49.418;8.728;2023-02-26T04:22:54;0.80;99.90
23562;DHT22;11959;49.418;8.728;2023-02-26T04:25:20;0.80;99.90
23562;DHT22;11959;49.418;8.728;2023-02-26T04:27:46;0.80;99.90
23562;DHT22;11959;49.418;8.728;2023-02-26T04:30:11;0.80;99.90
23562;DHT22;11959;49.418;8.728;2023-02-26T04:32:37;0.80;99.90
23562;DHT22;11959;49.418;8.728;2023-02-26T04:35:03;0.80;99.90
23562;DHT22;11959;49.418;8.728;2023-02-26T04:37:29;0.80;99.90
23562;DHT22;11959;49.418;8.728;2023-02-26T04:39:54;0.80;99.90
23562;DHT22;11959;49.418;8.728;2023-02-26T04:42:20;0.80;99.90
23562;DHT22;11959;49.418;8.728;2023-02-26T04:44:46;0.80;99.90
23562;DHT22;11959;49.418;8.728;2023-02-26T04:47:11;0.70;99.90
23562;DHT22;11959;49.418;8.728;2023-02-26T04:49:37;0.70;99.90
23562;DHT22;11959;49.418;8.728;2023-02-26T04:52:03;0.70;99.90
23562;DHT22;11959;49.418;8.728;2023-02-26T04:54:29;0.60;99.90
23562;DHT22;11959;49.418;8.728;2023-02-26T04:56:54;0.70;99.90
23562;DHT22;11959;49.418;8.728;2023-02-26T04:59:20;0.70;99.90
23562;DHT22;11959;49.418;8.728;2023-02-26T05:01:46;0.60;99.90
23562;DHT22;11959;49.418;8.728;2023-02-26T05:04:11;0.70;99.90
23562;DHT22;11959;49.418;8.728;2023-02-26T05:06:37;0.70;99.90
23562;DHT22;11959;49.418;8.728;2023-02-26T05:09:04;0.70;99.90
23562;DHT22;11959;49.418;8.728;2023-02-26T05:11:30;0.70;99.90
23562;DHT22;11959;49.418;8.728;2023-02-26T05:13:56;0.70;99.90
23562;DHT22;11959;49.418;8.728;2023-02-26T05:16:21;0.60;99.90
23562;DHT22;11959;49.418;8.728;2023-02-26T05:18:47;0.70;99.90
23562;DHT22;11959;49.418;8.728;2023-02-26T05:21:12;0.60;99.90
23562;DHT22;11959;49.418;8.728;2023-02-26T05:23:38;0.60;99.90
23562;DHT22;11959;49.418;8.728;2023-02-26T05:26:04;0.70;99.90
23562;DHT22;11959;49.418;8.728;2023-02-26T05:28:30;0.60;99.90
23562;DHT22;11959;49.418;8.728;2023-02-26T05:30:56;0.70;99.90
23562;DHT22;11959;49.418;8.728;2023-02-26T05:33:22;0.60;99.90
23562;DHT22;11959;49.418;8.728;2023-02-26T05:35:48;0.70;99.90
23562;DHT22;11959;49.418;8.728;2023-02-26T05:38:14;0.60;99.90
23562;DHT22;11959;49.418;8.728;2023-02-26T05:40:39;0.50;99.90
23562;DHT22;11959;49.418;8.728;2023-02-26T05:43:05;0.50;99.90
23562;DHT22;11959;49.418;8.728;2023-02-26T05:45:31;0.60;99.90
23562;DHT22;11959;49.418;8.728;2023-02-26T05:47:57;0.60;99.90
23562;DHT22;11959;49.418;8.728;2023-02-26T05:50:22;0.60;99.90
23562;DHT22;11959;49.418;8.728;2023-02-26T05:52:48;0.70;99.90
23562;DHT22;11959;49.418;8.728;2023-02-26T05:55:14;0.60;99.90
23562;DHT22;11959;49.418;8.728;2023-02-26T05:57:39;0.60;99.90
23562;DHT22;11959;49.418;8.728;2023-02-26T06:00:06;0.60;99.90
23562;DHT22;11959;49.418;8.728;2023-02-26T06:02:32;0.60;99.90
23562;DHT22;11959;49.418;8.728;2023-02-26T06:04:58;0.60;99.90
23562;DHT22;11959;49.418;8.728;2023-02-26T06:07:23;0.60;99.90
23562;DHT22;11959;49.418;8.728;2023-02-26T06:09:49;0.50;99.90
23562;DHT22;11959;49.418;8.728;2023-02-26T06:12:15;0.50;99.90
23562;DHT22;11959;49.418;8.728;2023-02-26T06:14:40;0.50;99.90
23562;DHT22;11959;49.418;8.728;2023-02-26T06:17:06;0.50;99.90
23562;DHT22;11959;49.418;8.728;2023-02-26T06:19:32;0.40;99.90
23562;DHT22;11959;49.418;8.728;2023-02-26T06:21:58;0.40;99.90
23562;DHT22;11959;49.418;8.728;2023-02-26T06:24:24;0.40;99.90
23562;DHT22;11959;49.418;8.728;2023-02-26T06:26:51;0.40;99.90
23562;DHT22;11959;49.418;8.728;2023-02-26T06:29:17;0.40;99.90
23562;DHT22;11959;49.418;8.728;2023-02-26T06:31:46;0.40;99.90
23562;DHT22;11959;49.418;8.728;2023-02-26T06:34:12;0.40;99.90
23562;DHT22;11959;49.418;8.728;2023-02-26T06:36:38;0.40;99.90
23562;DHT22;11959;49.418;8.728;2023-02-26T06:39:03;0.40;99.90
23562;DHT22;11959;49.418;8.728;2023-02-26T06:41:29;0.50;99.90
23562;DHT22;11959;49.418;8.728;2023-02-26T06:43:55;0.60;99.90
23562;DHT22;11959;49.418;8.728;2023-02-26T06:46:21;0.60;99.90
23562;DHT22;11959;49.418;8.728;2023-02-26T06:48:46;0.60;99.90
23562;DHT22;11959;49.418;8.728;2023-02-26T06:51:12;0.60;99.90
23562;DHT22;11959;49.418;8.728;2023-02-26T06:53:37;0.60;99.90
23562;DHT22;11959;49.418;8.728;2023-02-26T06:56:03;0.70;99.90
23562;DHT22;11959;49.418;8.728;2023-02-26T06:58:29;0.60;99.90
23562;DHT22;11959;49.418;8.728;2023-02-26T07:00:55;0.60;99.90
23562;DHT22;11959;49.418;8.728;2023-02-26T07:03:20;0.60;99.90
23562;DHT22;11959;49.418;8.728;2023-02-26T07:05:46;0.50;99.90
23562;DHT22;11959;49.418;8.728;2023-02-26T07:08:13;0.60;99.90
23562;DHT22;11959;49.418;8.728;2023-02-26T07:10:39;0.60;99.90
23562;DHT22;11959;49.418;8.728;2023-02-26T07:13:06;0.70;99.90
23562;DHT22;11959;49.418;8.728;2023-02-26T07:15:31;0.70;99.90
23562;DHT22;11959;49.418;8.728;2023-02-26T07:17:58;0.70;99.90
23562;DHT22;11959;49.418;8.728;2023-02-26T07:20:25;0.70;99.90
23562;DHT22;11959;49.418;8.728;2023-02-26T07:22:51;0.70;99.90
23562;DHT22;11959;49.418;8.728;2023-02-26T07:25:17;0.80;99.90
23562;DHT22;11959;49.418;8.728;2023-02-26T07:27:43;0.80;99.90
23562;DHT22;11959;49.418;8.728;2023-02-26T07:30:09;0.80;99.90
23562;DHT22;11959;49.418;8.728;2023-02-26T07:32:35;0.90;99.90
23562;DHT22;11959;49.418;8.728;2023-02-26T07:35:01;0.90;99.90
23562;DHT22;11959;49.418;8.728;2023-02-26T07:37:27;0.90;99.90
23562;DHT22;11959;49.418;8.728;2023-02-26T07:39:53;0.80;99.90
23562;DHT22;11959;49.418;8.728;2023-02-26T07:42:19;0.90;99.90
23562;DHT22;11959;49.418;8.728;2023-02-26T07:44:45;0.90;99.90
23562;DHT22;11959;49.418;8.728;2023-02-26T07:47:11;0.90;99.90
23562;DHT22;11959;49.418;8.728;2023-02-26T07:49:36;0.90;99.90
23562;DHT22;11959;49.418;8.728;2023-02-26T07:52:03;1.00;99.90
23562;DHT22;11959;49.418;8.728;2023-02-26T07:54:29;1.10;99.90
23562;DHT22;11959;49.418;8.728;2023-02-26T07:56:55;1.20;99.90
23562;DHT22;11959;49.418;8.728;2023-02-26T07:59:21;1.20;99.90
23562;DHT22;11959;49.418;8.728;2023-02-26T08:01:47;1.30;99.90
23562;DHT22;11959;49.418;8.728;2023-02-26T08:04:12;1.30;99.90
23562;DHT22;11959;49.418;8.728;2023-02-26T08:06:38;1.30;99.90
23562;DHT22;11959;49.418;8.728;2023-02-26T08:09:04;1.40;99.90
23562;DHT22;11959;49.418;8.728;2023-02-26T08:11:30;1.50;99.90
23562;DHT22;11959;49.418;8.728;2023-02-26T08:13:57;1.50;99.90
23562;DHT22;11959;49.418;8.728;2023-02-26T08:16:23;1.50;99.90
23562;DHT22;11959;49.418;8.728;2023-02-26T08:18:49;1.50;99.90
23562;DHT22;11959;49.418;8.728;2023-02-26T08:21:14;1.50;99.90
23562;DHT22;11959;49.418;8.728;2023-02-26T08:23:40;1.50;99.90
23562;DHT22;11959;49.418;8.728;2023-02-26T08:26:08;1.50;99.90
23562;DHT22;11959;49.418;8.728;2023-02-26T08:28:34;1.50;99.90
23562;DHT22;11959;49.418;8.728;2023-02-26T08:31:00;1.50;99.90
23562;DHT22;11959;49.418;8.728;2023-02-26T08:33:27;1.70;99.90
23562;DHT22;11959;49.418;8.728;2023-02-26T08:35:53;1.70;99.90
23562;DHT22;11959;49.418;8.728;2023-02-26T08:38:20;1.70;99.90
23562;DHT22;11959;49.418;8.728;2023-02-26T08:40:48;1.70;99.90
23562;DHT22;11959;49.418;8.728;2023-02-26T08:43:14;1.70;99.90
23562;DHT22;11959;49.418;8.728;2023-02-26T08:45:39;1.70;99.90
23562;DHT22;11959;49.418;8.728;2023-02-26T08:48:05;1.70;99.90
23562;DHT22;11959;49.418;8.728;2023-02-26T08:50:31;1.80;99.90
23562;DHT22;11959;49.418;8.728;2023-02-26T08:52:57;1.80;99.90
23562;DHT22;11959;49.418;8.728;2023-02-26T08:55:23;1.80;99.90
23562;DHT22;11959;49.418;8.728;2023-02-26T08:57:49;1.80;99.90
23562;DHT22;11959;49.418;8.728;2023-02-26T09:00:15;1.90;99.90
23562;DHT22;11959;49.418;8.728;2023-02-26T09:02:41;1.90;99.90
23562;DHT22;11959;49.418;8.728;2023-02-26T09:05:07;2.00;99.90
23562;DHT22;11959;49.418;8.728;2023-02-26T09:07:33;1.90;99.90
23562;DHT22;11959;49.418;8.728;2023-02-26T09:09:59;1.90;99.90
23562;DHT22;11959;49.418;8.728;2023-02-26T09:12:25;1.90;99.90
23562;DHT22;11959;49.418;8.728;2023-02-26T09:14:50;1.80;99.90
23562;DHT22;11959;49.418;8.728;2023-02-26T09:17:16;1.80;99.90
23562;DHT22;11959;49.418;8.728;2023-02-26T09:19:42;1.80;99.90
23562;DHT22;11959;49.418;8.728;2023-02-26T09:22:07;1.80;99.90
23562;DHT22;11959;49.418;8.728;2023-02-26T09:24:33;1.90;99.90
23562;DHT22;11959;49.418;8.728;2023-02-26T09:26:59;1.90;99.90
23562;DHT22;11959;49.418;8.728;2023-02-26T09:29:25;1.90;99.90
23562;DHT22;11959;49.418;8.728;2023-02-26T09:31:51;1.90;99.90
23562;DHT22;11959;49.418;8.728;2023-02-26T09:34:17;1.90;99.90
23562;DHT22;11959;49.418;8.728;2023-02-26T09:36:42;2.00;99.90
23562;DHT22;11959;49.418;8.728;2023-02-26T09:39:09;2.00;99.90
23562;DHT22;11959;49.418;8.728;2023-02-26T09:41:42;2.00;99.90
23562;DHT22;11959;49.418;8.728;2023-02-26T09:44:27;2.00;99.90
23562;DHT22;11959;49.418;8.728;2023-02-26T09:49:58;2.10;99.90
23562;DHT22;11959;49.418;8.728;2023-02-26T09:52:31;2.10;99.90
23562;DHT22;11959;49.418;8.728;2023-02-26T09:55:09;2.20;99.90
23562;DHT22;11959;49.418;8.728;2023-02-26T09:57:43;2.20;99.90
23562;DHT22;11959;49.418;8.728;2023-02-26T10:06:12;2.30;99.90
23562;DHT22;11959;49.418;8.728;2023-02-26T10:12:10;2.30;99.90
23562;DHT22;11959;49.418;8.728;2023-02-26T10:14:43;2.50;99.90
23562;DHT22;11959;49.418;8.728;2023-02-26T10:22:44;2.60;99.90
23562;DHT22;11959;49.418;8.728;2023-02-26T10:25:20;2.70;99.90
23562;DHT22;11959;49.418;8.728;2023-02-26T10:31:07;2.80;99.90
23562;DHT22;11959;49.418;8.728;2023-02-26T10:34:14;2.90;99.90
23562;DHT22;11959;49.418;8.728;2023-02-26T10:36:34;2.90;99.90
23562;DHT22;11959;49.418;8.728;2023-02-26T10:39:18;2.80;99.90
23562;DHT22;11959;49.418;8.728;2023-02-26T10:41:46;2.90;99.90
23562;DHT22;11959;49.418;8.728;2023-02-26T10:44:17;3.00;99.90
23562;DHT22;11959;49.418;8.728;2023-02-26T10:47:04;2.90;99.90
23562;DHT22;11959;49.418;8.728;2023-02-26T10:49:53;2.90;99.90
23562;DHT22;11959;49.418;8.728;2023-02-26T10:52:24;3.00;99.90
23562;DHT22;11959;49.418;8.728;2023-02-26T10:55:00;3.00;99.90
23562;DHT22;11959;49.418;8.728;2023-02-26T10:57:30;3.10;99.90
23562;DHT22;11959;49.418;8.728;2023-02-26T11:00:02;3.20;99.90
23562;DHT22;11959;49.418;8.728;2023-02-26T11:02:39;3.20;99.90
23562;DHT22;11959;49.418;8.728;2023-02-26T11:05:12;3.30;99.90
23562;DHT22;11959;49.418;8.728;2023-02-26T11:07:41;3.30;99.90
23562;DHT22;11959;49.418;8.728;2023-02-26T11:10:18;3.40;99.90
23562;DHT22;11959;49.418;8.728;2023-02-26T11:12:45;3.50;99.90
23562;DHT22;11959;49.418;8.728;2023-02-26T11:15:17;3.50;99.90
23562;DHT22;11959;49.418;8.728;2023-02-26T11:17:46;3.60;99.90
23562;DHT22;11959;49.418;8.728;2023-02-26T11:20:28;3.60;99.90
23562;DHT22;11959;49.418;8.728;2023-02-26T11:22:56;3.60;99.90
23562;DHT22;11959;49.418;8.728;2023-02-26T11:25:27;3.60;99.90
23562;DHT22;11959;49.418;8.728;2023-02-26T11:28:00;3.60;99.90
23562;DHT22;11959;49.418;8.728;2023-02-26T11:30:30;3.60;99.90
23562;DHT22;11959;49.418;8.728;2023-02-26T11:32:58;3.60;99.90
23562;DHT22;11959;49.418;8.728;2023-02-26T11:35:28;3.60;99.90
23562;DHT22;11959;49.418;8.728;2023-02-26T11:37:59;3.70;99.90
23562;DHT22;11959;49.418;8.728;2023-02-26T11:40:40;3.80;99.90
23562;DHT22;11959;49.418;8.728;2023-02-26T11:43:22;3.80;99.90
23562;DHT22;11959;49.418;8.728;2023-02-26T11:45:58;3.80;99.90
23562;DHT22;11959;49.418;8.728;2023-02-26T11:48:40;3.80;99.90
23562;DHT22;11959;49.418;8.728;2023-02-26T11:51:12;3.80;99.90
23562;DHT22;11959;49.418;8.728;2023-02-26T11:53:58;3.90;99.90
23562;DHT22;11959;49.418;8.728;2023-02-26T11:56:38;3.80;99.90
23562;DHT22;11959;49.418;8.728;2023-02-26T11:59:23;3.80;99.90
23562;DHT22;11959;49.418;8.728;2023-02-26T12:01:53;3.80;99.90
23562;DHT22;11959;49.418;8.728;2023-02-26T12:04:22;3.90;99.90
23562;DHT22;11959;49.418;8.728;2023-02-26T12:06:50;3.90;99.90
23562;DHT22;11959;49.418;8.728;2023-02-26T12:09:17;3.90;99.90
23562;DHT22;11959;49.418;8.728;2023-02-26T12:17:34;4.10;99.90
23562;DHT22;11959;49.418;8.728;2023-02-26T12:36:09;4.30;99.90
23562;DHT22;11959;49.418;8.728;2023-02-26T12:38:51;4.30;99.90
23562;DHT22;11959;49.418;8.728;2023-02-26T12:41:55;4.30;99.90
23562;DHT22;11959;49.418;8.728;2023-02-26T12:47:29;4.30;99.90
23562;DHT22;11959;49.418;8.728;2023-02-26T13:17:27;4.20;99.90
23562;DHT22;11959;49.418;8.728;2023-02-26T13:20:01;4.30;99.90
23562;DHT22;11959;49.418;8.728;2023-02-26T13:22:44;4.30;99.90
23562;DHT22;11959;49.418;8.728;2023-02-26T13:25:22;4.40;99.90
23562;DHT22;11959;49.418;8.728;2023-02-26T13:27:50;4.50;99.90
23562;DHT22;11959;49.418;8.728;2023-02-26T13:32:54;4.60;99.90
23562;DHT22;11959;49.418;8.728;2023-02-26T13:35:28;4.50;99.90
23562;DHT22;11959;49.418;8.728;2023-02-26T13:37:57;4.60;99.90
23562;DHT22;11959;49.418;8.728;2023-02-26T13:56:17;4.50;99.90
23562;DHT22;11959;49.418;8.728;2023-02-26T13:58:53;4.50;99.90
23562;DHT22;11959;49.418;8.728;2023-02-26T14:01:27;4.50;99.90
23562;DHT22;11959;49.418;8.728;2023-02-26T14:06:56;4.50;99.90
23562;DHT22;11959;49.418;8.728;2023-02-26T14:14:24;4.50;99.90
23562;DHT22;11959;49.418;8.728;2023-02-26T14:19:41;4.50;99.90
23562;DHT22;11959;49.418;8.728;2023-02-26T14:35:23;4.70;99.90
23562;DHT22;11959;49.418;8.728;2023-02-26T14:38:02;4.80;99.90
23562;DHT22;11959;49.418;8.728;2023-02-26T14:40:37;4.90;99.90
23562;DHT22;11959;49.418;8.728;2023-02-26T14:43:05;4.80;99.90
23562;DHT22;11959;49.418;8.728;2023-02-26T14:45:35;4.70;99.90
23562;DHT22;11959;49.418;8.728;2023-02-26T14:48:05;4.70;99.90
23562;DHT22;11959;49.418;8.728;2023-02-26T14:50:59;4.60;99.90
23562;DHT22;11959;49.418;8.728;2023-02-26T14:59:46;4.70;99.90
23562;DHT22;11959;49.418;8.728;2023-02-26T15:02:29;4.70;99.90
23562;DHT22;11959;49.418;8.728;2023-02-26T15:19:40;4.40;99.90
23562;DHT22;11959;49.418;8.728;2023-02-26T15:24:37;4.30;99.90
23562;DHT22;11959;49.418;8.728;2023-02-26T15:27:06;4.30;99.90
23562;DHT22;11959;49.418;8.728;2023-02-26T15:29:36;4.20;99.90
23562;DHT22;11959;49.418;8.728;2023-02-26T15:34:58;4.20;99.90
23562;DHT22;11959;49.418;8.728;2023-02-26T15:37:26;4.20;99.90
23562;DHT22;11959;49.418;8.728;2023-02-26T15:39:52;4.20;99.90
23562;DHT22;11959;49.418;8.728;2023-02-26T15:42:21;4.20;99.90
23562;DHT22;11959;49.418;8.728;2023-02-26T15:44:48;4.20;99.90
23562;DHT22;11959;49.418;8.728;2023-02-26T15:47:15;4.20;99.90
23562;DHT22;11959;49.418;8.728;2023-02-26T15:49:45;4.30;99.90
23562;DHT22;11959;49.418;8.728;2023-02-26T15:52:14;4.30;99.90
23562;DHT22;11959;49.418;8.728;2023-02-26T15:54:44;4.30;99.90
23562;DHT22;11959;49.418;8.728;2023-02-26T15:57:11;4.30;99.90
23562;DHT22;11959;49.418;8.728;2023-02-26T16:00:05;4.30;99.90
23562;DHT22;11959;49.418;8.728;2023-02-26T16:02:32;4.20;99.90
23562;DHT22;11959;49.418;8.728;2023-02-26T16:04:58;4.20;99.90
23562;DHT22;11959;49.418;8.728;2023-02-26T16:07:25;4.10;99.90
23562;DHT22;11959;49.418;8.728;2023-02-26T16:09:53;4.10;99.90
23562;DHT22;11959;49.418;8.728;2023-02-26T16:12:29;4.00;99.90
23562;DHT22;11959;49.418;8.728;2023-02-26T16:15:03;4.00;99.90
23562;DHT22;11959;49.418;8.728;2023-02-26T16:17:33;3.90;99.90
23562;DHT22;11959;49.418;8.728;2023-02-26T16:20:04;3.90;99.90
23562;DHT22;11959;49.418;8.728;2023-02-26T16:22:38;3.90;99.90
23562;DHT22;11959;49.418;8.728;2023-02-26T16:25:16;3.90;99.90
23562;DHT22;11959;49.418;8.728;2023-02-26T16:27:43;3.90;99.90
23562;DHT22;11959;49.418;8.728;2023-02-26T16:30:16;3.90;99.90
23562;DHT22;11959;49.418;8.728;2023-02-26T16:32:43;3.90;99.90
23562;DHT22;11959;49.418;8.728;2023-02-26T16:35:19;3.80;99.90
23562;DHT22;11959;49.418;8.728;2023-02-26T16:37:50;3.80;99.90
23562;DHT22;11959;49.418;8.728;2023-02-26T16:40:35;3.80;99.90
23562;DHT22;11959;49.418;8.728;2023-02-26T16:43:03;3.80;99.90
23562;DHT22;11959;49.418;8.728;2023-02-26T16:48:27;3.70;99.90
23562;DHT22;11959;49.418;8.728;2023-02-26T16:51:05;3.70;99.90
23562;DHT22;11959;49.418;8.728;2023-02-26T16:53:39;3.70;99.90
23562;DHT22;11959;49.418;8.728;2023-02-26T16:56:09;3.70;99.90
23562;DHT22;11959;49.418;8.728;2023-02-26T16:58:37;3.70;99.90
23562;DHT22;11959;49.418;8.728;2023-02-26T17:01:13;3.70;99.90
23562;DHT22;11959;49.418;8.728;2023-02-26T17:03:39;3.70;99.90
23562;DHT22;11959;49.418;8.728;2023-02-26T17:06:10;3.70;99.90
23562;DHT22;11959;49.418;8.728;2023-02-26T17:08:56;3.70;99.90
23562;DHT22;11959;49.418;8.728;2023-02-26T17:11:32;3.70;99.90
23562;DHT22;11959;49.418;8.728;2023-02-26T17:14:12;3.70;99.90
23562;DHT22;11959;49.418;8.728;2023-02-26T17:16:38;3.60;99.90
23562;DHT22;11959;49.418;8.728;2023-02-26T17:19:04;3.60;99.90
23562;DHT22;11959;49.418;8.728;2023-02-26T17:21:30;3.50;99.90
23562;DHT22;11959;49.418;8.728;2023-02-26T17:23:57;3.50;99.90
23562;DHT22;11959;49.418;8.728;2023-02-26T17:26:23;3.40;99.90
23562;DHT22;11959;49.418;8.728;2023-02-26T17:28:49;3.40;99.90
23562;DHT22;11959;49.418;8.728;2023-02-26T17:31:15;3.50;99.90
23562;DHT22;11959;49.418;8.728;2023-02-26T17:33:42;3.50;99.90
23562;DHT22;11959;49.418;8.728;2023-02-26T17:36:13;3.40;99.90
23562;DHT22;11959;49.418;8.728;2023-02-26T17:38:39;3.30;99.90
23562;DHT22;11959;49.418;8.728;2023-02-26T17:41:13;3.30;99.90
23562;DHT22;11959;49.418;8.728;2023-02-26T17:43:39;3.30;99.90
23562;DHT22;11959;49.418;8.728;2023-02-26T17:46:04;3.30;99.90
23562;DHT22;11959;49.418;8.728;2023-02-26T17:48:30;3.20;99.90
23562;DHT22;11959;49.418;8.728;2023-02-26T17:50:56;3.30;99.90
23562;DHT22;11959;49.418;8.728;2023-02-26T17:53:24;3.30;99.90
23562;DHT22;11959;49.418;8.728;2023-02-26T17:55:54;3.30;99.90
23562;DHT22;11959;49.418;8.728;2023-02-26T17:58:32;3.10;99.90
23562;DHT22;11959;49.418;8.728;2023-02-26T18:00:58;3.10;99.90
23562;DHT22;11959;49.418;8.728;2023-02-26T18:03:25;3.00;99.90
23562;DHT22;11959;49.418;8.728;2023-02-26T18:05:52;3.10;99.90
23562;DHT22;11959;49.418;8.728;2023-02-26T18:10:49;3.00;99.90
23562;DHT22;11959;49.418;8.728;2023-02-26T18:13:15;3.00;99.90
23562;DHT22;11959;49.418;8.728;2023-02-26T18:15:41;3.00;99.90
23562;DHT22;11959;49.418;8.728;2023-02-26T18:18:11;2.90;99.90
23562;DHT22;11959;49.418;8.728;2023-02-26T18:20:38;3.00;99.90
23562;DHT22;11959;49.418;8.728;2023-02-26T18:23:03;3.00;99.90
23562;DHT22;11959;49.418;8.728;2023-02-26T18:25:32;2.90;99.90
23562;DHT22;11959;49.418;8.728;2023-02-26T18:28:00;2.90;99.90
23562;DHT22;11959;49.418;8.728;2023-02-26T18:30:28;3.00;99.90
23562;DHT22;11959;49.418;8.728;2023-02-26T18:32:55;2.90;99.90
23562;DHT22;11959;49.418;8.728;2023-02-26T18:35:25;2.90;99.90
23562;DHT22;11959;49.418;8.728;2023-02-26T18:37:53;2.90;99.90
23562;DHT22;11959;49.418;8.728;2023-02-26T18:40:21;2.90;99.90
23562;DHT22;11959;49.418;8.728;2023-02-26T18:42:47;2.80;99.90
23562;DHT22;11959;49.418;8.728;2023-02-26T18:45:14;2.80;99.90
23562;DHT22;11959;49.418;8.728;2023-02-26T18:47:40;2.80;99.90
23562;DHT22;11959;49.418;8.728;2023-02-26T18:50:07;2.70;99.90
23562;DHT22;11959;49.418;8.728;2023-02-26T18:52:33;2.70;99.90
23562;DHT22;11959;49.418;8.728;2023-02-26T18:54:59;2.70;99.90
23562;DHT22;11959;49.418;8.728;2023-02-26T18:57:27;2.70;99.90